createdAt,value
2023-01-29T00:02:08.345Z,2.69
2023-01-29T00:04:37.518Z,2.70
2023-01-29T00:07:05.544Z,2.72
2023-01-29T00:09:35.746Z,2.71
2023-01-29T00:12:02.352Z,2.73
2023-01-29T00:14:29.505Z,2.72
2023-01-29T00:16:56.105Z,2.72
2023-01-29T00:19:22.661Z,2.70
2023-01-29T00:21:49.555Z,2.71
2023-01-29T00:24:16.148Z,2.71
2023-01-29T00:26:43.488Z,2.71
2023-01-29T00:29:10.278Z,2.71
2023-01-29T00:31:37.029Z,2.72
2023-01-29T00:34:05.981Z,2.71
2023-01-29T00:36:32.795Z,2.70
2023-01-29T00:39:03.829Z,2.68
2023-01-29T00:41:51.646Z,2.70
2023-01-29T00:44:37.364Z,2.71
2023-01-29T00:47:04.746Z,2.70
2023-01-29T00:49:32.610Z,2.71
2023-01-29T00:52:21.397Z,2.70
2023-01-29T00:54:50.815Z,2.72
2023-01-29T00:57:17.632Z,2.72
2023-01-29T00:59:44.537Z,2.73
2023-01-29T01:02:30.085Z,2.72
2023-01-29T01:04:57.288Z,2.72
2023-01-29T01:07:26.565Z,2.72
2023-01-29T01:10:11.954Z,2.73
2023-01-29T01:12:38.513Z,2.72
2023-01-29T01:15:06.103Z,2.71
2023-01-29T01:17:32.804Z,2.71
2023-01-29T01:19:59.614Z,2.72
2023-01-29T01:22:28.714Z,2.72
2023-01-29T01:24:55.698Z,2.70
2023-01-29T01:27:23.041Z,2.71
2023-01-29T01:29:50.673Z,2.71
2023-01-29T01:32:17.235Z,2.70
2023-01-29T01:34:45.676Z,2.68
2023-01-29T01:37:12.434Z,2.66
2023-01-29T01:39:39.009Z,2.67
2023-01-29T01:42:11.754Z,2.67
2023-01-29T01:44:58.884Z,2.68
2023-01-29T01:47:55.542Z,2.67
2023-01-29T01:50:35.156Z,2.67
2023-01-29T01:53:08.829Z,2.66
2023-01-29T01:55:43.388Z,2.68
2023-01-29T01:58:15.155Z,2.70
2023-01-29T02:00:42.623Z,2.69
2023-01-29T02:03:32.690Z,2.69
2023-01-29T02:06:20.092Z,2.70
2023-01-29T02:09:21.200Z,2.68
2023-01-29T02:11:48.023Z,2.69
2023-01-29T02:14:14.944Z,2.68
2023-01-29T02:16:41.581Z,2.69
2023-01-29T02:19:20.106Z,2.70
2023-01-29T02:21:57.471Z,2.70
2023-01-29T02:24:43.117Z,2.70
2023-01-29T02:27:16.474Z,2.71
2023-01-29T02:29:46.104Z,2.70
2023-01-29T02:32:34.449Z,2.70
2023-01-29T02:35:22.590Z,2.70
2023-01-29T02:38:01.240Z,2.70
2023-01-29T02:40:34.712Z,2.70
2023-01-29T02:43:01.171Z,2.70
2023-01-29T02:45:42.166Z,2.70
2023-01-29T02:48:17.646Z,2.70
2023-01-29T02:50:59.289Z,2.71
2023-01-29T02:53:36.606Z,2.71
2023-01-29T02:56:17.821Z,2.72
2023-01-29T02:58:52.638Z,2.72
2023-01-29T03:01:33.176Z,2.72
2023-01-29T03:04:09.812Z,2.71
2023-01-29T03:06:42.371Z,2.72
2023-01-29T03:09:12.892Z,2.74
2023-01-29T03:11:44.887Z,2.73
2023-01-29T03:14:17.140Z,2.76
2023-01-29T03:16:51.945Z,2.77
2023-01-29T03:19:34.774Z,2.76
2023-01-29T03:22:06.058Z,2.74
2023-01-29T03:24:56.076Z,2.72
2023-01-29T03:27:45.362Z,2.74
2023-01-29T03:30:37.996Z,2.73
2023-01-29T03:33:08.697Z,2.71
2023-01-29T03:35:43.880Z,2.71
2023-01-29T03:38:12.026Z,2.67
2023-01-29T03:41:01.209Z,2.67
2023-01-29T03:43:36.821Z,2.66
2023-01-29T03:46:45.715Z,2.63
2023-01-29T03:49:19.740Z,2.63
2023-01-29T03:52:19.774Z,2.65
2023-01-29T03:55:13.938Z,2.60
2023-01-29T03:57:49.740Z,2.57
2023-01-29T04:00:23.610Z,2.55
2023-01-29T04:03:02.482Z,2.54
2023-01-29T04:05:40.559Z,2.53
2023-01-29T04:08:14.537Z,2.49
2023-01-29T04:10:45.199Z,2.49
2023-01-29T04:13:16.106Z,2.49
2023-01-29T04:15:50.748Z,2.49
2023-01-29T04:18:17.603Z,2.47
2023-01-29T04:20:44.918Z,2.46
2023-01-29T04:23:23.896Z,2.44
2023-01-29T04:26:13.254Z,2.42
2023-01-29T04:29:11.456Z,2.42
2023-01-29T04:31:52.623Z,2.40
2023-01-29T04:34:35.656Z,2.37
2023-01-29T04:37:09.956Z,2.39
2023-01-29T04:39:48.905Z,2.38
2023-01-29T04:42:27.298Z,2.37
2023-01-29T04:44:58.176Z,2.37
2023-01-29T04:47:28.835Z,2.34
2023-01-29T04:50:25.571Z,2.33
2023-01-29T04:53:02.784Z,2.34
2023-01-29T04:55:47.448Z,2.32
2023-01-29T04:58:22.203Z,2.32
2023-01-29T05:00:53.562Z,2.32
2023-01-29T05:03:24.595Z,2.30
2023-01-29T05:05:54.224Z,2.29
2023-01-29T05:08:27.931Z,2.28
2023-01-29T05:11:00.125Z,2.27
2023-01-29T05:13:30.782Z,2.28
2023-01-29T05:16:09.339Z,2.26
2023-01-29T05:18:36.647Z,2.26
2023-01-29T05:21:09.300Z,2.25
2023-01-29T05:23:38.419Z,2.24
2023-01-29T05:26:05.764Z,2.22
2023-01-29T05:28:34.976Z,2.22
2023-01-29T05:31:01.890Z,2.22
2023-01-29T05:33:31.669Z,2.23
2023-01-29T05:36:01.732Z,2.23
2023-01-29T05:38:28.581Z,2.25
2023-01-29T05:40:55.125Z,2.23
2023-01-29T05:43:24.414Z,2.23
2023-01-29T05:45:58.641Z,2.24
2023-01-29T05:48:27.921Z,2.26
2023-01-29T05:50:57.913Z,2.24
2023-01-29T05:53:29.496Z,2.23
2023-01-29T05:55:57.621Z,2.24
2023-01-29T05:58:24.679Z,2.25
2023-01-29T06:00:51.527Z,2.25
2023-01-29T06:03:18.432Z,2.25
2023-01-29T06:05:48.164Z,2.24
2023-01-29T06:08:17.363Z,2.23
2023-01-29T06:10:44.230Z,2.24
2023-01-29T06:13:11.150Z,2.24
2023-01-29T06:15:42.776Z,2.24
2023-01-29T06:18:09.355Z,2.24
2023-01-29T06:20:38.269Z,2.25
2023-01-29T06:23:05.104Z,2.26
2023-01-29T06:25:35.373Z,2.26
2023-01-29T06:28:02.232Z,2.27
2023-01-29T06:30:32.602Z,2.27
2023-01-29T06:32:59.338Z,2.27
2023-01-29T06:35:26.480Z,2.27
2023-01-29T06:37:53.154Z,2.26
2023-01-29T06:40:20.117Z,2.26
2023-01-29T06:42:49.328Z,2.27
2023-01-29T06:45:15.955Z,2.25
2023-01-29T06:47:42.549Z,2.27
2023-01-29T06:50:09.761Z,2.28
2023-01-29T06:52:36.224Z,2.29
2023-01-29T06:55:03.089Z,2.30
2023-01-29T06:57:30.209Z,2.31
2023-01-29T06:59:59.978Z,2.31
2023-01-29T07:02:26.814Z,2.33
2023-01-29T07:04:53.466Z,2.32
2023-01-29T07:07:20.309Z,2.34
2023-01-29T07:09:46.829Z,2.34
2023-01-29T07:12:13.352Z,2.34
2023-01-29T07:14:42.246Z,2.34
2023-01-29T07:17:08.793Z,2.35
2023-01-29T07:19:35.306Z,2.35
2023-01-29T07:22:03.467Z,2.36
2023-01-29T07:24:30.187Z,2.35
2023-01-29T07:26:57.452Z,2.36
2023-01-29T07:29:24.370Z,2.35
2023-01-29T07:31:53.713Z,2.35
2023-01-29T07:34:20.749Z,2.38
2023-01-29T07:36:47.319Z,2.38
2023-01-29T07:39:14.020Z,2.38
2023-01-29T07:41:40.795Z,2.41
2023-01-29T07:44:07.611Z,2.41
2023-01-29T07:46:36.485Z,2.43
2023-01-29T07:49:03.052Z,2.43
2023-01-29T07:51:32.003Z,2.44
2023-01-29T07:53:58.599Z,2.46
2023-01-29T07:56:25.549Z,2.46
2023-01-29T07:58:53.049Z,2.47
2023-01-29T08:01:19.565Z,2.48
2023-01-29T08:03:46.497Z,2.47
2023-01-29T08:06:13.310Z,2.47
2023-01-29T08:08:44.529Z,2.49
2023-01-29T08:11:11.107Z,2.49
2023-01-29T08:13:39.515Z,2.50
2023-01-29T08:16:06.455Z,2.51
2023-01-29T08:18:34.006Z,2.54
2023-01-29T08:21:01.740Z,2.55
2023-01-29T08:23:28.362Z,2.55
2023-01-29T08:25:57.182Z,2.58
2023-01-29T08:28:23.829Z,2.59
2023-01-29T08:30:50.584Z,2.59
2023-01-29T08:33:23.804Z,2.61
2023-01-29T08:35:55.567Z,2.62
2023-01-29T08:38:22.588Z,2.64
2023-01-29T08:40:50.057Z,2.67
2023-01-29T08:43:16.891Z,2.69
2023-01-29T08:45:44.492Z,2.70
2023-01-29T08:48:12.656Z,2.72
2023-01-29T08:50:39.268Z,2.73
2023-01-29T08:53:08.258Z,2.74
2023-01-29T08:55:41.515Z,2.77
2023-01-29T08:58:11.393Z,2.78
2023-01-29T09:00:40.766Z,2.80
2023-01-29T09:03:09.378Z,2.81
2023-01-29T09:05:37.282Z,2.84
2023-01-29T09:08:05.260Z,2.84
2023-01-29T09:10:32.214Z,2.87
2023-01-29T09:12:59.104Z,2.87
2023-01-29T09:15:25.895Z,2.89
2023-01-29T09:17:52.990Z,2.91
2023-01-29T09:20:20.331Z,2.93
2023-01-29T09:22:47.815Z,2.95
2023-01-29T09:25:15.355Z,2.96
2023-01-29T09:27:42.201Z,3.00
2023-01-29T09:30:11.056Z,3.00
2023-01-29T09:32:53.180Z,3.01
2023-01-29T09:35:24.640Z,3.05
2023-01-29T09:37:52.070Z,3.09
2023-01-29T09:40:27.229Z,3.11
2023-01-29T09:43:24.024Z,3.14
2023-01-29T09:45:56.396Z,3.16
2023-01-29T09:48:29.489Z,3.20
2023-01-29T09:51:00.824Z,3.22
2023-01-29T09:53:41.189Z,3.25
2023-01-29T09:56:30.171Z,3.29
2023-01-29T09:59:02.391Z,3.33
2023-01-29T10:01:57.170Z,3.35
2023-01-29T10:04:52.719Z,3.39
2023-01-29T10:07:31.461Z,3.42
2023-01-29T10:09:58.121Z,3.48
2023-01-29T10:12:59.335Z,3.51
2023-01-29T10:16:00.019Z,3.52
2023-01-29T10:18:57.748Z,3.54
2023-01-29T10:21:30.692Z,3.54
2023-01-29T10:24:24.437Z,3.51
2023-01-29T10:26:52.795Z,3.51
2023-01-29T10:29:22.018Z,3.49
2023-01-29T10:31:55.716Z,3.48
2023-01-29T10:34:36.587Z,3.43
2023-01-29T10:37:18.806Z,3.42
2023-01-29T10:39:46.002Z,3.43
2023-01-29T10:42:35.767Z,3.46
2023-01-29T10:45:38.361Z,3.50
2023-01-29T10:48:39.375Z,3.55
2023-01-29T10:51:18.052Z,3.58
2023-01-29T10:54:02.263Z,3.62
2023-01-29T10:56:31.362Z,3.64
2023-01-29T10:59:49.819Z,3.65
2023-01-29T11:02:22.364Z,3.66
2023-01-29T11:04:49.340Z,3.66
2023-01-29T11:07:21.862Z,3.67
2023-01-29T11:10:05.104Z,3.65
2023-01-29T11:12:33.971Z,3.64
2023-01-29T11:15:05.748Z,3.63
2023-01-29T11:17:32.739Z,3.63
2023-01-29T11:19:59.716Z,3.65
2023-01-29T11:22:28.822Z,3.68
2023-01-29T11:25:10.449Z,3.70
2023-01-29T11:27:44.978Z,3.72
2023-01-29T11:30:21.915Z,3.73
2023-01-29T11:32:59.944Z,3.74
2023-01-29T11:35:26.931Z,3.76
2023-01-29T11:38:07.612Z,3.77
2023-01-29T11:40:40.775Z,3.76
2023-01-29T11:43:19.297Z,3.76
2023-01-29T11:45:50.855Z,3.79
2023-01-29T11:48:20.342Z,3.78
2023-01-29T11:51:22.315Z,3.79
2023-01-29T11:53:58.557Z,3.78
2023-01-29T11:56:40.574Z,3.81
2023-01-29T11:59:21.544Z,3.82
2023-01-29T12:01:48.402Z,3.82
2023-01-29T12:04:27.916Z,3.82
2023-01-29T12:06:54.754Z,3.83
2023-01-29T12:09:28.183Z,3.81
2023-01-29T12:11:55.315Z,3.80
2023-01-29T12:14:36.302Z,3.80
2023-01-29T12:17:26.334Z,3.81
2023-01-29T12:20:09.206Z,3.83
2023-01-29T12:22:49.614Z,3.83
2023-01-29T12:25:38.272Z,3.81
2023-01-29T12:28:29.512Z,3.84
2023-01-29T12:31:20.468Z,3.81
2023-01-29T12:34:06.027Z,3.80
2023-01-29T12:36:42.413Z,3.79
2023-01-29T12:39:14.067Z,3.78
2023-01-29T12:42:04.273Z,3.79
2023-01-29T12:44:33.861Z,3.80
2023-01-29T12:47:06.077Z,3.80
2023-01-29T12:49:38.588Z,3.82
2023-01-29T12:52:15.658Z,3.83
2023-01-29T12:55:11.146Z,3.86
2023-01-29T12:57:51.710Z,3.86
2023-01-29T13:00:27.454Z,3.86
2023-01-29T13:03:19.965Z,3.86
2023-01-29T13:06:05.188Z,3.87
2023-01-29T13:08:41.014Z,3.86
2023-01-29T13:11:20.897Z,3.87
2023-01-29T13:13:54.038Z,3.89
2023-01-29T13:16:26.122Z,3.88
2023-01-29T13:19:33.131Z,3.88
2023-01-29T13:22:05.636Z,3.88
2023-01-29T13:24:39.485Z,3.87
2023-01-29T13:27:07.474Z,3.90
2023-01-29T13:29:34.591Z,3.91
2023-01-29T13:32:04.581Z,3.96
2023-01-29T13:34:53.951Z,4.03
2023-01-29T13:37:36.292Z,4.11
2023-01-29T13:40:06.076Z,4.18
2023-01-29T13:42:43.946Z,4.20
2023-01-29T13:45:45.857Z,4.22
2023-01-29T13:48:28.285Z,4.25
2023-01-29T13:50:59.892Z,4.24
2023-01-29T13:53:39.400Z,4.26
2023-01-29T13:56:43.137Z,4.27
2023-01-29T13:59:23.302Z,4.24
2023-01-29T14:01:50.102Z,4.23
2023-01-29T14:04:28.279Z,4.25
2023-01-29T14:06:57.696Z,4.25
2023-01-29T14:09:37.846Z,4.26
2023-01-29T14:12:22.909Z,4.27
2023-01-29T14:14:49.395Z,4.27
2023-01-29T14:17:20.317Z,4.26
2023-01-29T14:19:51.615Z,4.25
2023-01-29T14:22:22.627Z,4.24
2023-01-29T14:24:54.572Z,4.25
2023-01-29T14:27:25.838Z,4.26
2023-01-29T14:30:01.018Z,4.25
2023-01-29T14:32:31.805Z,4.25
2023-01-29T14:35:04.382Z,4.23
2023-01-29T14:37:41.438Z,4.23
2023-01-29T14:40:11.243Z,4.25
2023-01-29T14:43:07.068Z,4.28
2023-01-29T14:45:39.434Z,4.28
2023-01-29T14:48:37.790Z,4.28
2023-01-29T14:51:17.955Z,4.28
2023-01-29T14:54:05.202Z,4.29
2023-01-29T14:56:40.599Z,4.32
2023-01-29T14:59:22.652Z,4.32
2023-01-29T15:01:58.147Z,4.32
2023-01-29T15:04:41.407Z,4.32
2023-01-29T15:07:13.388Z,4.31
2023-01-29T15:09:46.858Z,4.31
2023-01-29T15:12:28.905Z,4.30
2023-01-29T15:15:28.829Z,4.33
2023-01-29T15:18:02.274Z,4.35
2023-01-29T15:20:28.781Z,4.36
2023-01-29T15:22:57.972Z,4.36
2023-01-29T15:25:25.590Z,4.35
2023-01-29T15:27:54.701Z,4.37
2023-01-29T15:30:29.691Z,4.36
2023-01-29T15:32:57.090Z,4.35
2023-01-29T15:35:28.975Z,4.36
2023-01-29T15:38:17.259Z,4.36
2023-01-29T15:40:54.030Z,4.35
2023-01-29T15:43:23.327Z,4.34
2023-01-29T15:45:51.977Z,4.33
2023-01-29T15:48:22.933Z,4.29
2023-01-29T15:50:54.027Z,4.29
2023-01-29T15:53:29.684Z,4.27
2023-01-29T15:56:00.243Z,4.26
2023-01-29T15:58:31.470Z,4.26
2023-01-29T16:01:00.374Z,4.26
2023-01-29T16:03:30.808Z,4.25
2023-01-29T16:05:57.859Z,4.24
2023-01-29T16:08:28.421Z,4.22
2023-01-29T16:11:00.951Z,4.20
2023-01-29T16:13:37.016Z,4.20
2023-01-29T16:16:09.915Z,4.19
2023-01-29T16:18:40.882Z,4.18
2023-01-29T16:21:15.769Z,4.19
2023-01-29T16:23:45.955Z,4.15
2023-01-29T16:26:18.090Z,4.07
2023-01-29T16:28:48.594Z,4.03
2023-01-29T16:31:25.150Z,3.99
2023-01-29T16:33:52.266Z,3.97
2023-01-29T16:36:22.287Z,3.94
2023-01-29T16:39:15.468Z,3.91
2023-01-29T16:41:42.090Z,3.91
2023-01-29T16:44:32.811Z,3.90
2023-01-29T16:47:11.231Z,3.88
2023-01-29T16:49:37.659Z,3.84
2023-01-29T16:52:28.645Z,3.81
2023-01-29T16:55:13.418Z,3.77
2023-01-29T16:57:41.286Z,3.73
2023-01-29T17:00:21.066Z,3.71
2023-01-29T17:02:52.772Z,3.67
2023-01-29T17:05:28.575Z,3.64
2023-01-29T17:08:00.225Z,3.60
2023-01-29T17:10:29.847Z,3.56
2023-01-29T17:13:07.287Z,3.52
2023-01-29T17:15:46.302Z,3.49
2023-01-29T17:18:24.408Z,3.48
2023-01-29T17:20:54.395Z,3.46
2023-01-29T17:23:23.908Z,3.44
2023-01-29T17:25:52.080Z,3.44
2023-01-29T17:28:19.092Z,3.43
2023-01-29T17:31:00.299Z,3.43
2023-01-29T17:33:31.962Z,3.42
2023-01-29T17:35:58.835Z,3.43
2023-01-29T17:38:26.870Z,3.42
2023-01-29T17:40:58.313Z,3.41
2023-01-29T17:43:24.977Z,3.40
2023-01-29T17:45:51.835Z,3.42
2023-01-29T17:48:24.151Z,3.39
2023-01-29T17:50:53.837Z,3.40
2023-01-29T17:53:24.892Z,3.41
2023-01-29T17:55:53.394Z,3.41
2023-01-29T17:58:26.319Z,3.42
2023-01-29T18:00:54.703Z,3.43
2023-01-29T18:03:24.551Z,3.43
2023-01-29T18:05:52.124Z,3.45
2023-01-29T18:08:37.165Z,3.46
2023-01-29T18:11:07.120Z,3.49
2023-01-29T18:13:36.153Z,3.48
2023-01-29T18:16:03.256Z,3.50
2023-01-29T18:18:30.200Z,3.50
2023-01-29T18:20:56.683Z,3.51
2023-01-29T18:23:23.274Z,3.52
2023-01-29T18:25:52.071Z,3.53
2023-01-29T18:28:18.702Z,3.54
2023-01-29T18:30:52.070Z,3.56
2023-01-29T18:33:19.979Z,3.56
2023-01-29T18:35:50.615Z,3.58
2023-01-29T18:38:18.258Z,3.59
2023-01-29T18:40:44.856Z,3.59
2023-01-29T18:43:12.180Z,3.61
2023-01-29T18:45:39.090Z,3.61
2023-01-29T18:48:10.032Z,3.61
2023-01-29T18:50:36.873Z,3.62
2023-01-29T18:53:04.531Z,3.63
2023-01-29T18:55:34.023Z,3.63
2023-01-29T18:58:26.179Z,3.61
2023-01-29T19:00:48.038Z,3.64
2023-01-29T19:03:16.124Z,3.64
2023-01-29T19:05:43.348Z,3.65
2023-01-29T19:08:13.443Z,3.65
2023-01-29T19:10:49.725Z,3.63
2023-01-29T19:13:16.563Z,3.62
2023-01-29T19:15:44.283Z,3.62
2023-01-29T19:18:13.044Z,3.62
2023-01-29T19:20:43.931Z,3.62
2023-01-29T19:23:10.797Z,3.61
2023-01-29T19:25:38.981Z,3.60
2023-01-29T19:28:09.370Z,3.60
2023-01-29T19:30:36.579Z,3.58
2023-01-29T19:33:04.559Z,3.59
2023-01-29T19:35:31.176Z,3.59
2023-01-29T19:37:58.097Z,3.61
2023-01-29T19:40:27.616Z,3.61
2023-01-29T19:42:55.641Z,3.60
2023-01-29T19:45:37.197Z,3.61
2023-01-29T19:48:14.771Z,3.62
2023-01-29T19:50:41.606Z,3.63
2023-01-29T19:53:09.859Z,3.61
2023-01-29T19:55:36.645Z,3.62
2023-01-29T19:58:06.025Z,3.61
2023-01-29T20:00:32.673Z,3.63
2023-01-29T20:02:59.315Z,3.63
2023-01-29T20:05:27.370Z,3.66
2023-01-29T20:07:54.266Z,3.67
2023-01-29T20:10:21.518Z,3.67
2023-01-29T20:12:48.235Z,3.65
2023-01-29T20:15:15.961Z,3.69
2023-01-29T20:17:46.094Z,3.71
2023-01-29T20:20:13.408Z,3.71
2023-01-29T20:22:40.203Z,3.73
2023-01-29T20:25:13.656Z,3.74
2023-01-29T20:27:43.594Z,3.75
2023-01-29T20:30:10.877Z,3.76
2023-01-29T20:32:37.719Z,3.77
2023-01-29T20:35:07.219Z,3.80
2023-01-29T20:37:35.230Z,3.80
2023-01-29T20:40:01.941Z,3.81
2023-01-29T20:42:31.627Z,3.83
2023-01-29T20:44:58.149Z,3.87
2023-01-29T20:47:26.108Z,3.88
2023-01-29T20:49:54.222Z,3.90
2023-01-29T20:52:23.184Z,3.92
2023-01-29T20:54:51.345Z,3.94
2023-01-29T20:57:20.981Z,3.98
2023-01-29T20:59:48.290Z,3.99
2023-01-29T21:02:17.405Z,4.01
2023-01-29T21:04:44.479Z,4.03
2023-01-29T21:07:13.914Z,4.05
2023-01-29T21:09:40.468Z,4.07
2023-01-29T21:12:08.035Z,4.08
2023-01-29T21:14:35.835Z,4.09
2023-01-29T21:17:03.979Z,4.09
2023-01-29T21:19:33.382Z,4.10
2023-01-29T21:22:00.377Z,4.12
2023-01-29T21:24:28.442Z,4.15
2023-01-29T21:26:57.835Z,4.15
2023-01-29T21:29:24.733Z,4.16
2023-01-29T21:31:51.611Z,4.17
2023-01-29T21:34:18.245Z,4.20
2023-01-29T21:36:47.106Z,4.22
2023-01-29T21:39:16.913Z,4.26
2023-01-29T21:42:10.581Z,4.27
2023-01-29T21:44:38.975Z,4.29
2023-01-29T21:47:15.108Z,4.31
2023-01-29T21:49:43.162Z,4.32
2023-01-29T21:52:12.819Z,4.33
2023-01-29T21:54:41.530Z,4.30
2023-01-29T21:57:15.009Z,4.35
2023-01-29T21:59:42.702Z,4.37
2023-01-29T22:02:14.858Z,4.41
2023-01-29T22:04:42.603Z,4.44
2023-01-29T22:07:10.806Z,4.46
2023-01-29T22:09:38.019Z,4.48
2023-01-29T22:12:07.028Z,4.47
2023-01-29T22:14:36.899Z,4.53
2023-01-29T22:17:05.429Z,4.54
2023-01-29T22:19:32.324Z,4.57
2023-01-29T22:21:59.409Z,4.59
2023-01-29T22:24:28.998Z,4.64
2023-01-29T22:26:55.830Z,4.69
2023-01-29T22:29:23.322Z,4.72
2023-01-29T22:31:50.478Z,4.74
2023-01-29T22:34:17.037Z,4.75
2023-01-29T22:36:43.853Z,4.79
2023-01-29T22:39:12.148Z,4.80
2023-01-29T22:41:39.263Z,4.83
2023-01-29T22:44:07.449Z,4.86
2023-01-29T22:46:34.360Z,4.87
2023-01-29T22:49:03.402Z,4.90
2023-01-29T22:51:30.052Z,4.93
2023-01-29T22:53:57.599Z,4.97
2023-01-29T22:56:26.590Z,5.01
2023-01-29T22:58:54.982Z,5.06
2023-01-29T23:01:22.696Z,5.08
2023-01-29T23:03:49.410Z,5.10
2023-01-29T23:06:17.193Z,5.15
2023-01-29T23:08:44.107Z,5.17
2023-01-29T23:11:14.953Z,5.20
2023-01-29T23:13:49.999Z,5.22
2023-01-29T23:16:19.670Z,5.24
2023-01-29T23:18:50.346Z,5.27
2023-01-29T23:21:19.718Z,5.29
2023-01-29T23:23:47.318Z,5.31
2023-01-29T23:26:52.684Z,5.33
2023-01-29T23:29:19.502Z,5.35
2023-01-29T23:31:48.029Z,5.38
2023-01-29T23:34:15.432Z,5.40
2023-01-29T23:36:42.324Z,5.41
2023-01-29T23:39:09.002Z,5.43
2023-01-29T23:41:35.975Z,5.45
2023-01-29T23:44:03.175Z,5.50
2023-01-29T23:46:30.152Z,5.52
2023-01-29T23:48:56.851Z,5.50
2023-01-29T23:51:23.626Z,5.54
2023-01-29T23:53:50.122Z,5.57
2023-01-29T23:56:16.982Z,5.58
2023-01-29T23:58:46.284Z,5.60
